createdAt,value
2022-12-25T00:00:53.665Z,28.27
2022-12-25T00:01:55.764Z,27.73
2022-12-25T00:02:58.499Z,26.83
2022-12-25T00:04:00.760Z,28.48
2022-12-25T00:05:03.704Z,28.95
2022-12-25T00:06:06.511Z,28.63
2022-12-25T00:07:08.560Z,28.08
2022-12-25T00:08:11.120Z,27.00
2022-12-25T00:09:13.140Z,28.08
2022-12-25T00:10:15.158Z,27.45
2022-12-25T00:11:19.966Z,27.10
2022-12-25T00:12:22.531Z,25.40
2022-12-25T00:13:24.690Z,25.02
2022-12-25T00:14:26.698Z,23.65
2022-12-25T00:15:28.817Z,24.20
2022-12-25T00:16:30.974Z,24.60
2022-12-25T00:17:33.829Z,23.20
2022-12-25T00:18:36.196Z,25.50
2022-12-25T00:19:38.246Z,24.27
2022-12-25T00:20:40.297Z,24.88
2022-12-25T00:21:42.391Z,23.52
2022-12-25T00:22:44.428Z,23.83
2022-12-25T00:23:47.116Z,23.85
2022-12-25T00:24:49.515Z,25.90
2022-12-25T00:25:52.901Z,41.40
2022-12-25T00:26:54.952Z,43.30
2022-12-25T00:27:57.703Z,43.05
2022-12-25T00:28:59.824Z,45.83
2022-12-25T00:30:07.905Z,38.45
2022-12-25T00:31:18.261Z,33.33
2022-12-25T00:32:20.326Z,31.98
2022-12-25T00:33:22.356Z,29.52
2022-12-25T00:34:24.364Z,24.75
2022-12-25T00:35:26.339Z,22.27
2022-12-25T00:36:28.335Z,22.80
2022-12-25T00:37:30.441Z,25.40
2022-12-25T00:38:33.965Z,25.20
2022-12-25T00:39:36.031Z,23.60
2022-12-25T00:40:45.186Z,23.23
2022-12-25T00:42:09.833Z,23.58
2022-12-25T00:43:12.152Z,22.63
2022-12-25T00:44:14.239Z,20.38
2022-12-25T00:45:17.472Z,20.13
2022-12-25T00:46:19.599Z,21.10
2022-12-25T00:47:21.912Z,20.98
2022-12-25T00:48:24.308Z,20.45
2022-12-25T00:49:26.392Z,20.13
2022-12-25T00:50:28.402Z,22.23
2022-12-25T00:51:30.590Z,19.50
2022-12-25T00:52:33.210Z,20.52
2022-12-25T00:53:35.300Z,19.63
2022-12-25T00:54:38.560Z,24.88
2022-12-25T00:55:40.538Z,29.02
2022-12-25T00:56:42.543Z,21.88
2022-12-25T00:57:44.529Z,20.73
2022-12-25T00:58:50.825Z,24.00
2022-12-25T00:59:52.814Z,25.60
2022-12-25T01:00:54.999Z,23.50
2022-12-25T01:02:17.088Z,24.50
2022-12-25T01:03:19.544Z,24.90
2022-12-25T01:04:21.532Z,25.52
2022-12-25T01:05:23.537Z,24.63
2022-12-25T01:06:25.924Z,25.05
2022-12-25T01:07:28.216Z,24.13
2022-12-25T01:08:33.253Z,23.65
2022-12-25T01:09:53.977Z,26.17
2022-12-25T01:10:58.238Z,22.25
2022-12-25T01:12:00.363Z,22.73
2022-12-25T01:13:02.610Z,25.23
2022-12-25T01:14:05.038Z,24.35
2022-12-25T01:15:09.532Z,24.80
2022-12-25T01:16:12.280Z,20.65
2022-12-25T01:17:15.144Z,21.00
2022-12-25T01:18:17.326Z,20.48
2022-12-25T01:19:21.385Z,18.42
2022-12-25T01:20:23.390Z,16.90
2022-12-25T01:21:25.631Z,17.05
2022-12-25T01:22:27.818Z,17.70
2022-12-25T01:23:30.017Z,16.58
2022-12-25T01:24:31.995Z,17.60
2022-12-25T01:25:34.202Z,18.27
2022-12-25T01:26:38.792Z,19.88
2022-12-25T01:27:41.856Z,19.17
2022-12-25T01:28:43.884Z,20.80
2022-12-25T01:29:47.008Z,20.20
2022-12-25T01:30:49.726Z,20.50
2022-12-25T01:31:51.699Z,26.55
2022-12-25T01:32:53.664Z,21.63
2022-12-25T01:33:55.888Z,20.92
2022-12-25T01:34:57.896Z,18.48
2022-12-25T01:36:01.410Z,20.38
2022-12-25T01:37:03.695Z,18.50
2022-12-25T01:38:05.683Z,19.10
2022-12-25T01:39:07.800Z,18.67
2022-12-25T01:40:10.571Z,19.20
2022-12-25T01:41:14.963Z,20.63
2022-12-25T01:42:18.992Z,20.38
2022-12-25T01:43:28.596Z,19.80
2022-12-25T01:44:36.402Z,19.25
2022-12-25T01:45:43.821Z,18.27
2022-12-25T01:46:46.598Z,18.95
2022-12-25T01:47:49.148Z,20.13
2022-12-25T01:48:53.864Z,20.85
2022-12-25T01:49:55.934Z,23.60
2022-12-25T01:51:20.315Z,23.20
2022-12-25T01:52:25.199Z,19.70
2022-12-25T01:53:27.551Z,21.65
2022-12-25T01:54:34.588Z,19.90
2022-12-25T01:55:38.267Z,18.92
2022-12-25T01:56:41.601Z,17.85
2022-12-25T01:57:44.491Z,17.92
2022-12-25T01:58:47.329Z,18.90
2022-12-25T01:59:49.968Z,21.20
2022-12-25T02:00:52.826Z,23.58
2022-12-25T02:01:58.239Z,24.48
2022-12-25T02:03:00.912Z,22.38
2022-12-25T02:04:41.666Z,21.42
2022-12-25T02:05:45.854Z,20.33
2022-12-25T02:06:51.605Z,20.58
2022-12-25T02:07:54.839Z,21.08
2022-12-25T02:08:59.271Z,16.92
2022-12-25T02:10:01.459Z,15.13
2022-12-25T02:11:03.772Z,15.23
2022-12-25T02:12:08.038Z,14.48
2022-12-25T02:13:10.269Z,14.65
2022-12-25T02:14:12.521Z,15.27
2022-12-25T02:15:17.843Z,13.88
2022-12-25T02:16:22.909Z,14.47
2022-12-25T02:17:37.238Z,14.40
2022-12-25T02:18:43.846Z,14.55
2022-12-25T02:20:11.904Z,15.13
2022-12-25T02:21:51.984Z,16.17
2022-12-25T02:23:31.132Z,15.73
2022-12-25T02:25:02.770Z,16.83
2022-12-25T02:26:14.983Z,16.55
2022-12-25T02:27:55.552Z,17.30
2022-12-25T02:29:17.939Z,17.25
2022-12-25T02:30:20.176Z,18.30
2022-12-25T02:31:29.274Z,18.02
2022-12-25T02:32:37.497Z,17.45
2022-12-25T02:34:07.887Z,17.50
2022-12-25T02:35:23.873Z,16.70
2022-12-25T02:36:32.702Z,17.65
2022-12-25T02:37:41.252Z,18.20
2022-12-25T02:39:05.504Z,15.25
2022-12-25T02:40:19.626Z,14.82
2022-12-25T02:41:22.237Z,14.25
2022-12-25T02:43:13.231Z,14.73
2022-12-25T02:44:39.210Z,12.85
2022-12-25T02:46:06.071Z,12.70
2022-12-25T02:47:45.443Z,12.18
2022-12-25T02:49:14.286Z,13.25
2022-12-25T02:50:35.981Z,13.15
2022-12-25T02:52:00.868Z,13.23
2022-12-25T02:53:24.168Z,13.40
2022-12-25T02:54:52.718Z,13.20
2022-12-25T02:56:15.283Z,13.73
2022-12-25T02:57:39.320Z,14.97
2022-12-25T02:59:01.177Z,14.55
2022-12-25T03:00:24.995Z,16.42
2022-12-25T03:01:48.681Z,14.98
2022-12-25T03:03:11.368Z,16.73
2022-12-25T03:04:37.539Z,15.95
2022-12-25T03:06:00.168Z,16.38
2022-12-25T03:07:07.685Z,15.35
2022-12-25T03:08:21.223Z,14.63
2022-12-25T03:09:46.003Z,17.73
2022-12-25T03:11:18.627Z,18.50
2022-12-25T03:12:23.765Z,17.05
2022-12-25T03:13:33.593Z,16.52
2022-12-25T03:14:55.934Z,15.68
2022-12-25T03:16:16.904Z,16.73
2022-12-25T03:17:19.048Z,15.68
2022-12-25T03:18:24.621Z,16.10
2022-12-25T03:19:50.637Z,16.35
2022-12-25T03:21:12.772Z,17.00
